sensor_id;sensor_type;location;lat;lon;timestamp;P1;durP1;ratioP1;P2;durP2;ratioP2
11865;SDS011;5992;52.744;6.898;2023-02-19T00:00:32;9.67;;;7.73;;
11865;SDS011;5992;52.744;6.898;2023-02-19T00:03:47;10.73;;;7.97;;
11865;SDS011;5992;52.744;6.898;2023-02-19T00:07:00;8.85;;;7.85;;
11865;SDS011;5992;52.744;6.898;2023-02-19T00:10:24;8.93;;;7.80;;
11865;SDS011;5992;52.744;6.898;2023-02-19T00:13:24;10.60;;;8.23;;
11865;SDS011;5992;52.744;6.898;2023-02-19T00:16:37;11.10;;;8.03;;
11865;SDS011;5992;52.744;6.898;2023-02-19T00:19:49;9.30;;;7.45;;
11865;SDS011;5992;52.744;6.898;2023-02-19T00:23:05;12.80;;;7.95;;
11865;SDS011;5992;52.744;6.898;2023-02-19T00:26:18;11.45;;;8.30;;
11865;SDS011;5992;52.744;6.898;2023-02-19T00:29:42;10.50;;;8.23;;
11865;SDS011;5992;52.744;6.898;2023-02-19T00:32:42;8.17;;;7.30;;
11865;SDS011;5992;52.744;6.898;2023-02-19T00:35:57;9.43;;;7.43;;
11865;SDS011;5992;52.744;6.898;2023-02-19T00:39:12;8.60;;;7.10;;
11865;SDS011;5992;52.744;6.898;2023-02-19T00:42:37;10.15;;;7.45;;
11865;SDS011;5992;52.744;6.898;2023-02-19T00:45:49;8.97;;;7.67;;
11865;SDS011;5992;52.744;6.898;2023-02-19T00:49:01;12.47;;;7.63;;
11865;SDS011;5992;52.744;6.898;2023-02-19T00:52:13;10.60;;;7.90;;
11865;SDS011;5992;52.744;6.898;2023-02-19T00:55:27;9.60;;;7.37;;
11865;SDS011;5992;52.744;6.898;2023-02-19T00:58:40;10.67;;;7.93;;
11865;SDS011;5992;52.744;6.898;2023-02-19T01:02:07;11.00;;;7.30;;
11865;SDS011;5992;52.744;6.898;2023-02-19T01:05:07;10.50;;;8.00;;
11865;SDS011;5992;52.744;6.898;2023-02-19T01:08:20;13.63;;;7.07;;
11865;SDS011;5992;52.744;6.898;2023-02-19T01:11:21;13.37;;;7.27;;
11865;SDS011;5992;52.744;6.898;2023-02-19T01:14:47;9.73;;;7.70;;
11865;SDS011;5992;52.744;6.898;2023-02-19T01:17:47;14.83;;;8.23;;
11865;SDS011;5992;52.744;6.898;2023-02-19T01:20:59;14.05;;;8.80;;
11865;SDS011;5992;52.744;6.898;2023-02-19T01:24:11;11.67;;;7.47;;
11865;SDS011;5992;52.744;6.898;2023-02-19T01:27:25;14.63;;;8.07;;
11865;SDS011;5992;52.744;6.898;2023-02-19T01:30:37;11.60;;;8.10;;
11865;SDS011;5992;52.744;6.898;2023-02-19T01:34:01;16.50;;;8.70;;
11865;SDS011;5992;52.744;6.898;2023-02-19T01:37:25;10.95;;;7.80;;
11865;SDS011;5992;52.744;6.898;2023-02-19T01:40:53;13.95;;;8.50;;
11865;SDS011;5992;52.744;6.898;2023-02-19T01:44:07;13.83;;;8.10;;
11865;SDS011;5992;52.744;6.898;2023-02-19T01:47:32;8.10;;;6.80;;
11865;SDS011;5992;52.744;6.898;2023-02-19T01:50:34;15.97;;;8.23;;
11865;SDS011;5992;52.744;6.898;2023-02-19T01:53:58;12.03;;;7.00;;
11865;SDS011;5992;52.744;6.898;2023-02-19T01:57:11;11.53;;;7.33;;
11865;SDS011;5992;52.744;6.898;2023-02-19T02:00:37;9.00;;;7.30;;
11865;SDS011;5992;52.744;6.898;2023-02-19T02:04:03;14.10;;;7.00;;
11865;SDS011;5992;52.744;6.898;2023-02-19T02:07:16;16.35;;;7.90;;
11865;SDS011;5992;52.744;6.898;2023-02-19T02:10:48;11.27;;;6.73;;
11865;SDS011;5992;52.744;6.898;2023-02-19T02:14:12;13.60;;;7.27;;
11865;SDS011;5992;52.744;6.898;2023-02-19T02:17:27;11.67;;;7.27;;
11865;SDS011;5992;52.744;6.898;2023-02-19T02:20:57;9.70;;;6.57;;
11865;SDS011;5992;52.744;6.898;2023-02-19T02:24:29;12.70;;;6.13;;
11865;SDS011;5992;52.744;6.898;2023-02-19T02:27:53;8.55;;;6.75;;
11865;SDS011;5992;52.744;6.898;2023-02-19T02:31:18;18.93;;;6.57;;
11865;SDS011;5992;52.744;6.898;2023-02-19T02:34:44;14.50;;;6.23;;
11865;SDS011;5992;52.744;6.898;2023-02-19T02:38:08;13.30;;;6.00;;
11865;SDS011;5992;52.744;6.898;2023-02-19T02:41:32;9.17;;;5.57;;
11865;SDS011;5992;52.744;6.898;2023-02-19T02:44:57;11.70;;;5.60;;
11865;SDS011;5992;52.744;6.898;2023-02-19T02:48:31;8.67;;;5.20;;
11865;SDS011;5992;52.744;6.898;2023-02-19T02:51:42;7.67;;;4.93;;
11865;SDS011;5992;52.744;6.898;2023-02-19T02:55:06;12.37;;;5.13;;
11865;SDS011;5992;52.744;6.898;2023-02-19T02:58:17;8.65;;;4.45;;
11865;SDS011;5992;52.744;6.898;2023-02-19T03:01:41;6.03;;;4.57;;
11865;SDS011;5992;52.744;6.898;2023-02-19T03:05:24;5.23;;;4.40;;
11865;SDS011;5992;52.744;6.898;2023-02-19T03:09:06;6.50;;;4.10;;
11865;SDS011;5992;52.744;6.898;2023-02-19T03:12:30;5.87;;;4.80;;
11865;SDS011;5992;52.744;6.898;2023-02-19T03:16:01;6.40;;;4.40;;
11865;SDS011;5992;52.744;6.898;2023-02-19T03:19:18;7.37;;;4.03;;
11865;SDS011;5992;52.744;6.898;2023-02-19T03:22:44;5.15;;;3.80;;
11865;SDS011;5992;52.744;6.898;2023-02-19T03:26:09;8.55;;;4.65;;
11865;SDS011;5992;52.744;6.898;2023-02-19T03:29:21;6.43;;;3.87;;
11865;SDS011;5992;52.744;6.898;2023-02-19T03:32:45;6.37;;;4.27;;
11865;SDS011;5992;52.744;6.898;2023-02-19T03:36:10;6.73;;;3.90;;
11865;SDS011;5992;52.744;6.898;2023-02-19T03:39:38;5.83;;;3.60;;
11865;SDS011;5992;52.744;6.898;2023-02-19T03:43:05;5.85;;;3.60;;
11865;SDS011;5992;52.744;6.898;2023-02-19T03:46:28;4.50;;;3.30;;
11865;SDS011;5992;52.744;6.898;2023-02-19T03:49:53;4.93;;;3.23;;
11865;SDS011;5992;52.744;6.898;2023-02-19T03:53:19;4.10;;;3.70;;
11865;SDS011;5992;52.744;6.898;2023-02-19T03:56:44;4.03;;;3.07;;
11865;SDS011;5992;52.744;6.898;2023-02-19T04:00:08;7.20;;;4.15;;
11865;SDS011;5992;52.744;6.898;2023-02-19T04:03:33;3.60;;;3.05;;
11865;SDS011;5992;52.744;6.898;2023-02-19T04:06:59;4.00;;;3.30;;
11865;SDS011;5992;52.744;6.898;2023-02-19T04:10:12;4.87;;;3.33;;
11865;SDS011;5992;52.744;6.898;2023-02-19T04:13:39;4.40;;;3.15;;
11865;SDS011;5992;52.744;6.898;2023-02-19T04:17:10;3.53;;;3.23;;
11865;SDS011;5992;52.744;6.898;2023-02-19T04:20:15;3.87;;;3.37;;
11865;SDS011;5992;52.744;6.898;2023-02-19T04:23:43;5.20;;;3.55;;
11865;SDS011;5992;52.744;6.898;2023-02-19T04:26:54;3.20;;;2.90;;
11865;SDS011;5992;52.744;6.898;2023-02-19T04:30:21;4.40;;;2.73;;
11865;SDS011;5992;52.744;6.898;2023-02-19T04:33:33;3.60;;;2.87;;
11865;SDS011;5992;52.744;6.898;2023-02-19T04:36:57;1.93;;;1.83;;
11865;SDS011;5992;52.744;6.898;2023-02-19T04:40:09;3.10;;;2.80;;
11865;SDS011;5992;52.744;6.898;2023-02-19T04:43:39;4.00;;;3.00;;
11865;SDS011;5992;52.744;6.898;2023-02-19T04:46:41;2.00;;;1.70;;
11865;SDS011;5992;52.744;6.898;2023-02-19T04:50:06;2.33;;;2.10;;
11865;SDS011;5992;52.744;6.898;2023-02-19T04:53:06;3.17;;;2.87;;
11865;SDS011;5992;52.744;6.898;2023-02-19T04:56:18;3.05;;;2.55;;
11865;SDS011;5992;52.744;6.898;2023-02-19T04:59:18;2.63;;;2.27;;
11865;SDS011;5992;52.744;6.898;2023-02-19T05:02:32;2.40;;;2.20;;
11865;SDS011;5992;52.744;6.898;2023-02-19T05:05:44;2.50;;;2.30;;
11865;SDS011;5992;52.744;6.898;2023-02-19T05:08:56;3.23;;;2.23;;
11865;SDS011;5992;52.744;6.898;2023-02-19T05:11:56;2.93;;;2.17;;
11865;SDS011;5992;52.744;6.898;2023-02-19T05:15:09;2.53;;;2.30;;
11865;SDS011;5992;52.744;6.898;2023-02-19T05:18:11;2.33;;;2.13;;
11865;SDS011;5992;52.744;6.898;2023-02-19T05:21:36;4.10;;;2.00;;
11865;SDS011;5992;52.744;6.898;2023-02-19T05:24:47;2.07;;;1.80;;
11865;SDS011;5992;52.744;6.898;2023-02-19T05:28:00;1.67;;;1.53;;
11865;SDS011;5992;52.744;6.898;2023-02-19T05:31:05;1.23;;;1.13;;
11865;SDS011;5992;52.744;6.898;2023-02-19T05:34:30;1.93;;;1.77;;
11865;SDS011;5992;52.744;6.898;2023-02-19T05:37:43;1.80;;;1.70;;
11865;SDS011;5992;52.744;6.898;2023-02-19T05:40:55;2.00;;;1.90;;
11865;SDS011;5992;52.744;6.898;2023-02-19T05:43:55;1.70;;;1.60;;
11865;SDS011;5992;52.744;6.898;2023-02-19T05:47:19;1.50;;;1.40;;
11865;SDS011;5992;52.744;6.898;2023-02-19T05:50:20;3.80;;;1.70;;
11865;SDS011;5992;52.744;6.898;2023-02-19T05:53:48;1.67;;;1.57;;
11865;SDS011;5992;52.744;6.898;2023-02-19T05:57:00;1.70;;;1.60;;
11865;SDS011;5992;52.744;6.898;2023-02-19T06:00:13;1.47;;;1.43;;
11865;SDS011;5992;52.744;6.898;2023-02-19T06:03:37;1.40;;;1.30;;
11865;SDS011;5992;52.744;6.898;2023-02-19T06:06:38;2.50;;;1.70;;
11865;SDS011;5992;52.744;6.898;2023-02-19T06:10:03;2.00;;;1.80;;
11865;SDS011;5992;52.744;6.898;2023-02-19T06:13:04;1.87;;;1.77;;
11865;SDS011;5992;52.744;6.898;2023-02-19T06:16:29;1.80;;;1.70;;
11865;SDS011;5992;52.744;6.898;2023-02-19T06:19:41;1.80;;;1.70;;
11865;SDS011;5992;52.744;6.898;2023-02-19T06:22:54;2.33;;;2.13;;
11865;SDS011;5992;52.744;6.898;2023-02-19T06:26:06;1.80;;;1.70;;
11865;SDS011;5992;52.744;6.898;2023-02-19T06:29:31;2.20;;;2.00;;
11865;SDS011;5992;52.744;6.898;2023-02-19T06:32:43;2.00;;;1.90;;
11865;SDS011;5992;52.744;6.898;2023-02-19T06:35:56;2.30;;;2.10;;
11865;SDS011;5992;52.744;6.898;2023-02-19T06:39:09;2.00;;;1.90;;
11865;SDS011;5992;52.744;6.898;2023-02-19T06:42:34;2.47;;;2.00;;
11865;SDS011;5992;52.744;6.898;2023-02-19T06:45:34;2.40;;;2.20;;
11865;SDS011;5992;52.744;6.898;2023-02-19T06:48:46;1.60;;;1.50;;
11865;SDS011;5992;52.744;6.898;2023-02-19T06:51:58;2.70;;;1.80;;
11865;SDS011;5992;52.744;6.898;2023-02-19T06:55:11;1.50;;;1.40;;
11865;SDS011;5992;52.744;6.898;2023-02-19T06:58:24;1.90;;;1.80;;
11865;SDS011;5992;52.744;6.898;2023-02-19T07:01:36;2.03;;;1.83;;
11865;SDS011;5992;52.744;6.898;2023-02-19T07:04:48;2.35;;;1.50;;
11865;SDS011;5992;52.744;6.898;2023-02-19T07:08:00;2.25;;;2.05;;
11865;SDS011;5992;52.744;6.898;2023-02-19T07:11:01;1.93;;;1.70;;
11865;SDS011;5992;52.744;6.898;2023-02-19T07:14:26;3.83;;;1.73;;
11865;SDS011;5992;52.744;6.898;2023-02-19T07:17:38;2.35;;;1.80;;
11865;SDS011;5992;52.744;6.898;2023-02-19T07:20:51;2.05;;;1.95;;
11865;SDS011;5992;52.744;6.898;2023-02-19T07:23:51;1.75;;;1.65;;
11865;SDS011;5992;52.744;6.898;2023-02-19T07:27:16;1.83;;;1.67;;
11865;SDS011;5992;52.744;6.898;2023-02-19T07:30:32;1.70;;;1.60;;
11865;SDS011;5992;52.744;6.898;2023-02-19T07:33:56;1.67;;;1.50;;
11865;SDS011;5992;52.744;6.898;2023-02-19T07:36:56;2.17;;;1.83;;
11865;SDS011;5992;52.744;6.898;2023-02-19T07:40:08;2.03;;;1.83;;
11865;SDS011;5992;52.744;6.898;2023-02-19T07:43:10;2.23;;;2.03;;
11865;SDS011;5992;52.744;6.898;2023-02-19T07:46:36;3.13;;;2.57;;
11865;SDS011;5992;52.744;6.898;2023-02-19T07:49:36;4.45;;;2.30;;
11865;SDS011;5992;52.744;6.898;2023-02-19T07:52:48;1.80;;;1.70;;
11865;SDS011;5992;52.744;6.898;2023-02-19T07:55:48;2.70;;;2.20;;
11865;SDS011;5992;52.744;6.898;2023-02-19T07:59:13;3.00;;;2.70;;
11865;SDS011;5992;52.744;6.898;2023-02-19T08:02:26;2.30;;;2.10;;
11865;SDS011;5992;52.744;6.898;2023-02-19T08:05:45;2.07;;;1.87;;
11865;SDS011;5992;52.744;6.898;2023-02-19T08:08:45;2.80;;;2.15;;
11865;SDS011;5992;52.744;6.898;2023-02-19T08:11:57;4.10;;;2.50;;
11865;SDS011;5992;52.744;6.898;2023-02-19T08:15:05;2.85;;;2.15;;
11865;SDS011;5992;52.744;6.898;2023-02-19T08:18:29;3.15;;;2.00;;
11865;SDS011;5992;52.744;6.898;2023-02-19T08:21:41;2.80;;;2.20;;
11865;SDS011;5992;52.744;6.898;2023-02-19T08:24:54;2.70;;;2.50;;
11865;SDS011;5992;52.744;6.898;2023-02-19T08:27:54;2.80;;;2.47;;
11865;SDS011;5992;52.744;6.898;2023-02-19T08:31:10;4.05;;;2.45;;
11865;SDS011;5992;52.744;6.898;2023-02-19T08:34:21;3.30;;;2.60;;
11865;SDS011;5992;52.744;6.898;2023-02-19T08:37:33;3.70;;;2.40;;
11865;SDS011;5992;52.744;6.898;2023-02-19T08:40:33;2.40;;;2.05;;
11865;SDS011;5992;52.744;6.898;2023-02-19T08:43:58;2.13;;;1.93;;
11865;SDS011;5992;52.744;6.898;2023-02-19T08:47:00;3.53;;;3.23;;
11865;SDS011;5992;52.744;6.898;2023-02-19T08:50:25;4.85;;;3.00;;
11865;SDS011;5992;52.744;6.898;2023-02-19T08:53:38;3.27;;;2.40;;
11865;SDS011;5992;52.744;6.898;2023-02-19T08:57:01;2.67;;;1.93;;
11865;SDS011;5992;52.744;6.898;2023-02-19T09:00:01;2.60;;;2.30;;
11865;SDS011;5992;52.744;6.898;2023-02-19T09:03:27;2.77;;;2.07;;
11865;SDS011;5992;52.744;6.898;2023-02-19T09:06:40;2.80;;;2.45;;
11865;SDS011;5992;52.744;6.898;2023-02-19T09:09:53;2.30;;;2.10;;
11865;SDS011;5992;52.744;6.898;2023-02-19T09:13:05;2.40;;;2.20;;
11865;SDS011;5992;52.744;6.898;2023-02-19T09:16:29;3.90;;;2.50;;
11865;SDS011;5992;52.744;6.898;2023-02-19T09:19:31;2.77;;;2.33;;
11865;SDS011;5992;52.744;6.898;2023-02-19T09:22:56;1.77;;;1.67;;
11865;SDS011;5992;52.744;6.898;2023-02-19T09:26:08;4.25;;;2.40;;
11865;SDS011;5992;52.744;6.898;2023-02-19T09:29:32;2.60;;;2.40;;
11865;SDS011;5992;52.744;6.898;2023-02-19T09:32:32;2.70;;;2.50;;
11865;SDS011;5992;52.744;6.898;2023-02-19T09:35:46;2.40;;;2.20;;
11865;SDS011;5992;52.744;6.898;2023-02-19T09:38:58;2.77;;;2.00;;
11865;SDS011;5992;52.744;6.898;2023-02-19T09:42:23;2.40;;;2.17;;
11865;SDS011;5992;52.744;6.898;2023-02-19T09:45:34;3.70;;;2.50;;
11865;SDS011;5992;52.744;6.898;2023-02-19T09:49:01;2.25;;;2.05;;
11865;SDS011;5992;52.744;6.898;2023-02-19T09:52:14;2.60;;;2.13;;
11865;SDS011;5992;52.744;6.898;2023-02-19T09:55:28;3.07;;;2.70;;
11865;SDS011;5992;52.744;6.898;2023-02-19T09:58:42;2.00;;;1.90;;
11865;SDS011;5992;52.744;6.898;2023-02-19T10:02:04;2.73;;;2.10;;
11865;SDS011;5992;52.744;6.898;2023-02-19T10:05:27;2.40;;;2.20;;
11865;SDS011;5992;52.744;6.898;2023-02-19T10:08:42;1.73;;;1.63;;
11865;SDS011;5992;52.744;6.898;2023-02-19T10:12:11;2.10;;;1.83;;
11865;SDS011;5992;52.744;6.898;2023-02-19T10:15:24;2.27;;;2.07;;
11865;SDS011;5992;52.744;6.898;2023-02-19T10:18:47;2.60;;;2.30;;
11865;SDS011;5992;52.744;6.898;2023-02-19T10:22:00;1.90;;;1.80;;
11865;SDS011;5992;52.744;6.898;2023-02-19T10:25:25;2.80;;;1.95;;
11865;SDS011;5992;52.744;6.898;2023-02-19T10:28:37;2.00;;;1.70;;
11865;SDS011;5992;52.744;6.898;2023-02-19T10:32:11;1.50;;;1.40;;
11865;SDS011;5992;52.744;6.898;2023-02-19T10:35:22;1.43;;;1.33;;
11865;SDS011;5992;52.744;6.898;2023-02-19T10:38:35;2.00;;;1.80;;
11865;SDS011;5992;52.744;6.898;2023-02-19T10:41:48;1.90;;;1.80;;
11865;SDS011;5992;52.744;6.898;2023-02-19T10:45:16;3.03;;;1.73;;
11865;SDS011;5992;52.744;6.898;2023-02-19T10:48:28;1.80;;;1.70;;
11865;SDS011;5992;52.744;6.898;2023-02-19T10:51:53;1.67;;;1.57;;
11865;SDS011;5992;52.744;6.898;2023-02-19T10:55:14;1.77;;;1.67;;
11865;SDS011;5992;52.744;6.898;2023-02-19T10:58:40;1.53;;;1.43;;
11865;SDS011;5992;52.744;6.898;2023-02-19T11:01:53;1.43;;;1.33;;
11865;SDS011;5992;52.744;6.898;2023-02-19T11:05:18;2.85;;;1.40;;
11865;SDS011;5992;52.744;6.898;2023-02-19T11:08:30;1.40;;;1.30;;
11865;SDS011;5992;52.744;6.898;2023-02-19T11:11:54;1.20;;;1.10;;
11865;SDS011;5992;52.744;6.898;2023-02-19T11:15:18;1.17;;;1.10;;
11865;SDS011;5992;52.744;6.898;2023-02-19T11:18:38;2.07;;;1.27;;
11865;SDS011;5992;52.744;6.898;2023-02-19T11:21:38;1.33;;;1.20;;
11865;SDS011;5992;52.744;6.898;2023-02-19T11:24:51;1.33;;;1.30;;
11865;SDS011;5992;52.744;6.898;2023-02-19T11:28:04;1.30;;;1.20;;
11865;SDS011;5992;52.744;6.898;2023-02-19T11:31:31;1.00;;;1.00;;
11865;SDS011;5992;52.744;6.898;2023-02-19T11:34:44;1.43;;;1.33;;
11865;SDS011;5992;52.744;6.898;2023-02-19T11:38:08;3.03;;;1.63;;
11865;SDS011;5992;52.744;6.898;2023-02-19T11:41:21;1.10;;;1.10;;
11865;SDS011;5992;52.744;6.898;2023-02-19T11:44:48;1.50;;;1.40;;
11865;SDS011;5992;52.744;6.898;2023-02-19T11:48:05;1.10;;;1.10;;
11865;SDS011;5992;52.744;6.898;2023-02-19T11:54:49;1.40;;;1.30;;
11865;SDS011;5992;52.744;6.898;2023-02-19T11:58:20;1.07;;;1.07;;
11865;SDS011;5992;52.744;6.898;2023-02-19T12:01:42;1.13;;;1.13;;
11865;SDS011;5992;52.744;6.898;2023-02-19T12:05:19;0.90;;;0.90;;
11865;SDS011;5992;52.744;6.898;2023-02-19T12:08:37;2.60;;;0.80;;
11865;SDS011;5992;52.744;6.898;2023-02-19T12:12:05;1.00;;;1.00;;
11865;SDS011;5992;52.744;6.898;2023-02-19T12:15:27;0.90;;;0.90;;
11865;SDS011;5992;52.744;6.898;2023-02-19T12:19:02;0.83;;;0.80;;
11865;SDS011;5992;52.744;6.898;2023-02-19T12:22:19;1.07;;;1.00;;
11865;SDS011;5992;52.744;6.898;2023-02-19T12:25:48;0.80;;;0.80;;
11865;SDS011;5992;52.744;6.898;2023-02-19T12:29:03;0.80;;;0.80;;
11865;SDS011;5992;52.744;6.898;2023-02-19T12:32:29;0.67;;;0.63;;
11865;SDS011;5992;52.744;6.898;2023-02-19T12:35:45;0.57;;;0.57;;
11865;SDS011;5992;52.744;6.898;2023-02-19T12:39:12;1.10;;;1.10;;
11865;SDS011;5992;52.744;6.898;2023-02-19T12:42:27;0.80;;;0.63;;
11865;SDS011;5992;52.744;6.898;2023-02-19T12:45:51;1.65;;;0.80;;
11865;SDS011;5992;52.744;6.898;2023-02-19T12:49:04;0.60;;;0.60;;
11865;SDS011;5992;52.744;6.898;2023-02-19T12:52:30;1.40;;;0.80;;
11865;SDS011;5992;52.744;6.898;2023-02-19T12:55:43;0.90;;;0.90;;
11865;SDS011;5992;52.744;6.898;2023-02-19T12:59:09;1.80;;;0.60;;
11865;SDS011;5992;52.744;6.898;2023-02-19T13:02:20;0.60;;;0.60;;
11865;SDS011;5992;52.744;6.898;2023-02-19T13:05:45;0.90;;;0.50;;
11865;SDS011;5992;52.744;6.898;2023-02-19T13:08:55;0.60;;;0.60;;
11865;SDS011;5992;52.744;6.898;2023-02-19T13:12:22;0.80;;;0.80;;
11865;SDS011;5992;52.744;6.898;2023-02-19T13:15:33;1.23;;;0.70;;
11865;SDS011;5992;52.744;6.898;2023-02-19T13:18:57;4.43;;;0.50;;
11865;SDS011;5992;52.744;6.898;2023-02-19T13:22:14;0.70;;;0.70;;
11865;SDS011;5992;52.744;6.898;2023-02-19T13:25:49;1.30;;;1.00;;
11865;SDS011;5992;52.744;6.898;2023-02-19T13:29:04;1.00;;;0.60;;
11865;SDS011;5992;52.744;6.898;2023-02-19T13:32:33;1.35;;;0.80;;
11865;SDS011;5992;52.744;6.898;2023-02-19T13:39:14;0.60;;;0.60;;
11865;SDS011;5992;52.744;6.898;2023-02-19T13:42:27;0.70;;;0.70;;
11865;SDS011;5992;52.744;6.898;2023-02-19T13:45:54;0.83;;;0.70;;
11865;SDS011;5992;52.744;6.898;2023-02-19T13:52:45;0.65;;;0.65;;
11865;SDS011;5992;52.744;6.898;2023-02-19T13:55:48;1.13;;;0.73;;
11865;SDS011;5992;52.744;6.898;2023-02-19T13:59:12;0.50;;;0.50;;
11865;SDS011;5992;52.744;6.898;2023-02-19T14:02:30;1.03;;;0.60;;
11865;SDS011;5992;52.744;6.898;2023-02-19T14:05:57;0.73;;;0.50;;
11865;SDS011;5992;52.744;6.898;2023-02-19T14:12:36;1.05;;;0.65;;
11865;SDS011;5992;52.744;6.898;2023-02-19T14:15:48;0.47;;;0.47;;
11865;SDS011;5992;52.744;6.898;2023-02-19T14:19:03;0.60;;;0.60;;
11865;SDS011;5992;52.744;6.898;2023-02-19T14:25:52;0.60;;;0.60;;
11865;SDS011;5992;52.744;6.898;2023-02-19T14:29:05;0.75;;;0.60;;
11865;SDS011;5992;52.744;6.898;2023-02-19T14:32:29;1.30;;;0.90;;
11865;SDS011;5992;52.744;6.898;2023-02-19T14:35:32;0.70;;;0.70;;
11865;SDS011;5992;52.744;6.898;2023-02-19T14:38:56;0.93;;;0.67;;
11865;SDS011;5992;52.744;6.898;2023-02-19T14:42:11;2.20;;;0.70;;
11865;SDS011;5992;52.744;6.898;2023-02-19T14:45:33;0.75;;;0.70;;
11865;SDS011;5992;52.744;6.898;2023-02-19T14:48:44;0.50;;;0.50;;
11865;SDS011;5992;52.744;6.898;2023-02-19T14:52:11;0.70;;;0.70;;
11865;SDS011;5992;52.744;6.898;2023-02-19T14:55:24;0.50;;;0.50;;
11865;SDS011;5992;52.744;6.898;2023-02-19T14:59:06;0.70;;;0.70;;
11865;SDS011;5992;52.744;6.898;2023-02-19T15:02:18;0.83;;;0.83;;
11865;SDS011;5992;52.744;6.898;2023-02-19T15:05:32;0.53;;;0.53;;
11865;SDS011;5992;52.744;6.898;2023-02-19T15:08:45;0.60;;;0.60;;
11865;SDS011;5992;52.744;6.898;2023-02-19T15:12:13;1.00;;;0.80;;
11865;SDS011;5992;52.744;6.898;2023-02-19T15:15:26;0.60;;;0.60;;
11865;SDS011;5992;52.744;6.898;2023-02-19T15:18:49;2.17;;;0.70;;
11865;SDS011;5992;52.744;6.898;2023-02-19T15:22:02;0.63;;;0.63;;
11865;SDS011;5992;52.744;6.898;2023-02-19T15:25:29;0.70;;;0.70;;
11865;SDS011;5992;52.744;6.898;2023-02-19T15:28:40;1.50;;;0.77;;
11865;SDS011;5992;52.744;6.898;2023-02-19T15:31:54;0.90;;;0.90;;
11865;SDS011;5992;52.744;6.898;2023-02-19T15:35:06;1.40;;;0.70;;
11865;SDS011;5992;52.744;6.898;2023-02-19T15:38:18;0.70;;;0.70;;
11865;SDS011;5992;52.744;6.898;2023-02-19T15:41:33;0.60;;;0.60;;
11865;SDS011;5992;52.744;6.898;2023-02-19T15:44:59;0.80;;;0.80;;
11865;SDS011;5992;52.744;6.898;2023-02-19T15:48:11;0.95;;;0.90;;
11865;SDS011;5992;52.744;6.898;2023-02-19T15:51:35;0.77;;;0.77;;
11865;SDS011;5992;52.744;6.898;2023-02-19T15:54:48;0.80;;;0.80;;
11865;SDS011;5992;52.744;6.898;2023-02-19T15:58:13;0.77;;;0.77;;
11865;SDS011;5992;52.744;6.898;2023-02-19T16:01:26;1.40;;;0.93;;
11865;SDS011;5992;52.744;6.898;2023-02-19T16:04:50;0.90;;;0.60;;
11865;SDS011;5992;52.744;6.898;2023-02-19T16:08:06;0.50;;;0.50;;
11865;SDS011;5992;52.744;6.898;2023-02-19T16:11:33;0.60;;;0.55;;
11865;SDS011;5992;52.744;6.898;2023-02-19T16:14:46;0.70;;;0.70;;
11865;SDS011;5992;52.744;6.898;2023-02-19T16:18:19;1.95;;;0.70;;
11865;SDS011;5992;52.744;6.898;2023-02-19T16:21:25;0.87;;;0.87;;
11865;SDS011;5992;52.744;6.898;2023-02-19T16:24:48;0.77;;;0.77;;
11865;SDS011;5992;52.744;6.898;2023-02-19T16:28:07;0.60;;;0.60;;
11865;SDS011;5992;52.744;6.898;2023-02-19T16:31:29;1.10;;;0.65;;
11865;SDS011;5992;52.744;6.898;2023-02-19T16:34:42;0.50;;;0.50;;
11865;SDS011;5992;52.744;6.898;2023-02-19T16:38:10;1.27;;;0.60;;
11865;SDS011;5992;52.744;6.898;2023-02-19T16:41:22;0.57;;;0.57;;
11865;SDS011;5992;52.744;6.898;2023-02-19T16:44:35;0.65;;;0.65;;
11865;SDS011;5992;52.744;6.898;2023-02-19T16:47:36;0.50;;;0.50;;
11865;SDS011;5992;52.744;6.898;2023-02-19T16:51:00;0.60;;;0.60;;
11865;SDS011;5992;52.744;6.898;2023-02-19T16:54:00;1.00;;;0.80;;
11865;SDS011;5992;52.744;6.898;2023-02-19T16:57:13;0.50;;;0.50;;
11865;SDS011;5992;52.744;6.898;2023-02-19T17:00:16;0.77;;;0.77;;
11865;SDS011;5992;52.744;6.898;2023-02-19T17:03:43;0.63;;;0.63;;
11865;SDS011;5992;52.744;6.898;2023-02-19T17:06:55;0.55;;;0.55;;
11865;SDS011;5992;52.744;6.898;2023-02-19T17:10:07;0.80;;;0.70;;
11865;SDS011;5992;52.744;6.898;2023-02-19T17:13:19;1.90;;;0.80;;
11865;SDS011;5992;52.744;6.898;2023-02-19T17:16:31;0.77;;;0.77;;
11865;SDS011;5992;52.744;6.898;2023-02-19T17:19:44;1.20;;;0.53;;
11865;SDS011;5992;52.744;6.898;2023-02-19T17:23:09;0.70;;;0.70;;
11865;SDS011;5992;52.744;6.898;2023-02-19T17:26:10;1.40;;;1.30;;
11865;SDS011;5992;52.744;6.898;2023-02-19T17:29:35;0.60;;;0.60;;
11865;SDS011;5992;52.744;6.898;2023-02-19T17:32:35;1.35;;;1.25;;
11865;SDS011;5992;52.744;6.898;2023-02-19T17:35:49;0.60;;;0.60;;
11865;SDS011;5992;52.744;6.898;2023-02-19T17:39:02;1.87;;;1.00;;
11865;SDS011;5992;52.744;6.898;2023-02-19T17:42:26;1.40;;;0.80;;
11865;SDS011;5992;52.744;6.898;2023-02-19T17:45:26;0.90;;;0.90;;
11865;SDS011;5992;52.744;6.898;2023-02-19T17:48:39;1.10;;;1.00;;
11865;SDS011;5992;52.744;6.898;2023-02-19T17:51:40;0.93;;;0.93;;
11865;SDS011;5992;52.744;6.898;2023-02-19T17:55:06;0.95;;;0.90;;
11865;SDS011;5992;52.744;6.898;2023-02-19T17:58:07;1.33;;;0.83;;
11865;SDS011;5992;52.744;6.898;2023-02-19T18:01:20;1.57;;;1.20;;
11865;SDS011;5992;52.744;6.898;2023-02-19T18:04:45;0.70;;;0.70;;
11865;SDS011;5992;52.744;6.898;2023-02-19T18:07:47;1.07;;;0.90;;
11865;SDS011;5992;52.744;6.898;2023-02-19T18:11:11;1.87;;;1.30;;
11865;SDS011;5992;52.744;6.898;2023-02-19T18:14:23;2.90;;;1.33;;
11865;SDS011;5992;52.744;6.898;2023-02-19T18:17:35;4.20;;;1.10;;
11865;SDS011;5992;52.744;6.898;2023-02-19T18:20:35;1.45;;;0.90;;
11865;SDS011;5992;52.744;6.898;2023-02-19T18:23:49;1.95;;;0.75;;
11865;SDS011;5992;52.744;6.898;2023-02-19T18:27:02;2.37;;;1.00;;
11865;SDS011;5992;52.744;6.898;2023-02-19T18:30:16;0.80;;;0.80;;
11865;SDS011;5992;52.744;6.898;2023-02-19T18:33:27;1.83;;;1.00;;
11865;SDS011;5992;52.744;6.898;2023-02-19T18:36:39;1.17;;;0.70;;
11865;SDS011;5992;52.744;6.898;2023-02-19T18:39:52;2.10;;;1.03;;
11865;SDS011;5992;52.744;6.898;2023-02-19T18:43:17;0.97;;;0.97;;
11865;SDS011;5992;52.744;6.898;2023-02-19T18:46:19;3.60;;;1.00;;
11865;SDS011;5992;52.744;6.898;2023-02-19T18:49:43;2.60;;;1.20;;
11865;SDS011;5992;52.744;6.898;2023-02-19T18:52:55;1.20;;;1.10;;
11865;SDS011;5992;52.744;6.898;2023-02-19T18:56:08;2.70;;;0.80;;
11865;SDS011;5992;52.744;6.898;2023-02-19T18:59:21;0.90;;;0.90;;
11865;SDS011;5992;52.744;6.898;2023-02-19T19:02:45;4.35;;;1.55;;
11865;SDS011;5992;52.744;6.898;2023-02-19T19:05:45;0.70;;;0.70;;
11865;SDS011;5992;52.744;6.898;2023-02-19T19:08:57;1.10;;;1.00;;
11865;SDS011;5992;52.744;6.898;2023-02-19T19:12:10;1.17;;;0.90;;
11865;SDS011;5992;52.744;6.898;2023-02-19T19:15:35;1.60;;;1.10;;
11865;SDS011;5992;52.744;6.898;2023-02-19T19:18:35;1.83;;;0.90;;
11865;SDS011;5992;52.744;6.898;2023-02-19T19:21:51;2.25;;;1.00;;
11865;SDS011;5992;52.744;6.898;2023-02-19T19:25:03;2.95;;;1.30;;
11865;SDS011;5992;52.744;6.898;2023-02-19T19:28:29;1.30;;;1.15;;
11865;SDS011;5992;52.744;6.898;2023-02-19T19:31:43;1.23;;;0.80;;
11865;SDS011;5992;52.744;6.898;2023-02-19T19:35:07;1.77;;;0.80;;
11865;SDS011;5992;52.744;6.898;2023-02-19T19:38:19;2.20;;;1.10;;
11865;SDS011;5992;52.744;6.898;2023-02-19T19:41:31;2.27;;;1.50;;
11865;SDS011;5992;52.744;6.898;2023-02-19T19:44:33;1.57;;;1.43;;
11865;SDS011;5992;52.744;6.898;2023-02-19T19:47:58;1.20;;;1.10;;
11865;SDS011;5992;52.744;6.898;2023-02-19T19:50:58;1.23;;;1.10;;
11865;SDS011;5992;52.744;6.898;2023-02-19T19:54:22;2.30;;;1.20;;
11865;SDS011;5992;52.744;6.898;2023-02-19T19:57:22;2.40;;;1.40;;
11865;SDS011;5992;52.744;6.898;2023-02-19T20:00:37;1.55;;;1.10;;
11865;SDS011;5992;52.744;6.898;2023-02-19T20:04:01;5.17;;;1.30;;
11865;SDS011;5992;52.744;6.898;2023-02-19T20:07:01;1.70;;;1.00;;
11865;SDS011;5992;52.744;6.898;2023-02-19T20:10:15;1.37;;;1.20;;
11865;SDS011;5992;52.744;6.898;2023-02-19T20:13:25;2.43;;;1.60;;
11865;SDS011;5992;52.744;6.898;2023-02-19T20:16:40;3.30;;;1.15;;